sensor_id;sensor_type;location;lat;lon;timestamp;P1;durP1;ratioP1;P2;durP2;ratioP2
31126;SDS011;17775;57.948;12.514;2023-09-19T00:01:43;1.05;;;0.75;;
31126;SDS011;17775;57.948;12.514;2023-09-19T00:04:12;0.82;;;0.70;;
31126;SDS011;17775;57.948;12.514;2023-09-19T00:06:40;0.68;;;0.60;;
31126;SDS011;17775;57.948;12.514;2023-09-19T00:09:07;0.75;;;0.70;;
31126;SDS011;17775;57.948;12.514;2023-09-19T00:11:37;0.55;;;0.55;;
31126;SDS011;17775;57.948;12.514;2023-09-19T00:14:05;0.60;;;0.60;;
31126;SDS011;17775;57.948;12.514;2023-09-19T00:16:34;0.50;;;0.50;;
31126;SDS011;17775;57.948;12.514;2023-09-19T00:19:00;0.70;;;0.68;;
31126;SDS011;17775;57.948;12.514;2023-09-19T00:21:27;0.90;;;0.75;;
31126;SDS011;17775;57.948;12.514;2023-09-19T00:23:54;0.73;;;0.60;;
31126;SDS011;17775;57.948;12.514;2023-09-19T00:26:21;0.77;;;0.77;;
31126;SDS011;17775;57.948;12.514;2023-09-19T00:28:48;0.68;;;0.63;;
31126;SDS011;17775;57.948;12.514;2023-09-19T00:31:14;0.80;;;0.65;;
31126;SDS011;17775;57.948;12.514;2023-09-19T00:33:41;0.80;;;0.80;;
31126;SDS011;17775;57.948;12.514;2023-09-19T00:36:09;1.42;;;1.30;;
31126;SDS011;17775;57.948;12.514;2023-09-19T00:38:35;2.00;;;1.80;;
31126;SDS011;17775;57.948;12.514;2023-09-19T00:41:02;2.22;;;1.73;;
31126;SDS011;17775;57.948;12.514;2023-09-19T00:43:29;2.92;;;2.35;;
31126;SDS011;17775;57.948;12.514;2023-09-19T00:45:56;3.20;;;2.90;;
31126;SDS011;17775;57.948;12.514;2023-09-19T00:48:26;3.33;;;3.03;;
31126;SDS011;17775;57.948;12.514;2023-09-19T00:50:56;4.10;;;3.70;;
31126;SDS011;17775;57.948;12.514;2023-09-19T00:53:24;5.65;;;5.05;;
31126;SDS011;17775;57.948;12.514;2023-09-19T00:55:52;3.95;;;3.55;;
31126;SDS011;17775;57.948;12.514;2023-09-19T00:58:19;6.55;;;5.85;;
31126;SDS011;17775;57.948;12.514;2023-09-19T01:00:46;5.13;;;4.63;;
31126;SDS011;17775;57.948;12.514;2023-09-19T01:03:14;5.40;;;4.90;;
31126;SDS011;17775;57.948;12.514;2023-09-19T01:05:41;4.97;;;4.53;;
31126;SDS011;17775;57.948;12.514;2023-09-19T01:08:22;5.03;;;4.53;;
31126;SDS011;17775;57.948;12.514;2023-09-19T01:10:52;3.92;;;3.40;;
31126;SDS011;17775;57.948;12.514;2023-09-19T01:13:34;3.35;;;3.05;;
31126;SDS011;17775;57.948;12.514;2023-09-19T01:16:10;3.17;;;2.80;;
31126;SDS011;17775;57.948;12.514;2023-09-19T01:29:19;3.25;;;2.90;;
31126;SDS011;17775;57.948;12.514;2023-09-19T01:31:51;3.90;;;3.50;;
31126;SDS011;17775;57.948;12.514;2023-09-19T01:34:20;4.65;;;4.15;;
31126;SDS011;17775;57.948;12.514;2023-09-19T01:36:47;3.42;;;3.13;;
31126;SDS011;17775;57.948;12.514;2023-09-19T01:39:14;3.60;;;3.30;;
31126;SDS011;17775;57.948;12.514;2023-09-19T01:44:22;5.53;;;4.93;;
31126;SDS011;17775;57.948;12.514;2023-09-19T01:46:50;4.47;;;4.07;;
31126;SDS011;17775;57.948;12.514;2023-09-19T01:49:23;4.25;;;3.85;;
31126;SDS011;17775;57.948;12.514;2023-09-19T01:52:11;3.70;;;3.40;;
31126;SDS011;17775;57.948;12.514;2023-09-19T01:54:48;3.10;;;2.80;;
31126;SDS011;17775;57.948;12.514;2023-09-19T01:59:48;2.83;;;2.53;;
31126;SDS011;17775;57.948;12.514;2023-09-19T02:02:19;2.60;;;2.40;;
31126;SDS011;17775;57.948;12.514;2023-09-19T02:04:48;3.08;;;2.78;;
31126;SDS011;17775;57.948;12.514;2023-09-19T02:07:15;6.72;;;5.15;;
31126;SDS011;17775;57.948;12.514;2023-09-19T02:09:44;4.60;;;4.13;;
31126;SDS011;17775;57.948;12.514;2023-09-19T02:12:10;4.38;;;3.97;;
31126;SDS011;17775;57.948;12.514;2023-09-19T02:14:37;5.22;;;4.72;;
31126;SDS011;17775;57.948;12.514;2023-09-19T02:17:18;4.47;;;4.07;;
31126;SDS011;17775;57.948;12.514;2023-09-19T02:19:46;4.72;;;4.32;;
31126;SDS011;17775;57.948;12.514;2023-09-19T02:22:13;5.45;;;3.70;;
31126;SDS011;17775;57.948;12.514;2023-09-19T02:24:40;3.97;;;3.58;;
31126;SDS011;17775;57.948;12.514;2023-09-19T02:27:09;3.20;;;2.90;;
31126;SDS011;17775;57.948;12.514;2023-09-19T02:29:41;4.65;;;3.97;;
31126;SDS011;17775;57.948;12.514;2023-09-19T02:32:08;3.60;;;3.30;;
31126;SDS011;17775;57.948;12.514;2023-09-19T02:34:36;3.78;;;3.38;;
31126;SDS011;17775;57.948;12.514;2023-09-19T02:37:03;3.95;;;3.55;;
31126;SDS011;17775;57.948;12.514;2023-09-19T02:39:32;3.85;;;3.45;;
31126;SDS011;17775;57.948;12.514;2023-09-19T02:44:39;4.75;;;3.92;;
31126;SDS011;17775;57.948;12.514;2023-09-19T02:47:07;3.78;;;3.40;;
31126;SDS011;17775;57.948;12.514;2023-09-19T02:49:33;4.00;;;3.58;;
31126;SDS011;17775;57.948;12.514;2023-09-19T02:52:03;3.75;;;3.45;;
31126;SDS011;17775;57.948;12.514;2023-09-19T02:54:30;3.50;;;3.20;;
31126;SDS011;17775;57.948;12.514;2023-09-19T02:56:57;5.28;;;4.78;;
31126;SDS011;17775;57.948;12.514;2023-09-19T02:59:26;4.10;;;3.70;;
31126;SDS011;17775;57.948;12.514;2023-09-19T03:01:55;3.30;;;3.00;;
31126;SDS011;17775;57.948;12.514;2023-09-19T03:04:21;4.10;;;3.70;;
31126;SDS011;17775;57.948;12.514;2023-09-19T03:06:48;4.05;;;3.65;;
31126;SDS011;17775;57.948;12.514;2023-09-19T03:09:18;4.43;;;4.00;;
31126;SDS011;17775;57.948;12.514;2023-09-19T03:11:45;7.00;;;5.97;;
31126;SDS011;17775;57.948;12.514;2023-09-19T03:14:12;6.53;;;5.82;;
31126;SDS011;17775;57.948;12.514;2023-09-19T03:16:39;6.20;;;5.60;;
31126;SDS011;17775;57.948;12.514;2023-09-19T03:19:06;9.45;;;7.90;;
31126;SDS011;17775;57.948;12.514;2023-09-19T03:21:33;7.20;;;6.50;;
31126;SDS011;17775;57.948;12.514;2023-09-19T03:24:01;11.50;;;10.32;;
31126;SDS011;17775;57.948;12.514;2023-09-19T03:26:28;10.82;;;9.73;;
31126;SDS011;17775;57.948;12.514;2023-09-19T03:28:54;8.60;;;7.78;;
31126;SDS011;17775;57.948;12.514;2023-09-19T03:31:21;8.15;;;7.32;;
31126;SDS011;17775;57.948;12.514;2023-09-19T03:33:48;8.65;;;7.85;;
31126;SDS011;17775;57.948;12.514;2023-09-19T03:36:14;9.05;;;8.10;;
31126;SDS011;17775;57.948;12.514;2023-09-19T03:38:41;10.07;;;7.65;;
31126;SDS011;17775;57.948;12.514;2023-09-19T03:41:08;8.75;;;7.65;;
31126;SDS011;17775;57.948;12.514;2023-09-19T03:43:34;8.10;;;7.35;;
31126;SDS011;17775;57.948;12.514;2023-09-19T03:46:01;8.00;;;7.10;;
31126;SDS011;17775;57.948;12.514;2023-09-19T03:48:31;6.90;;;6.28;;
31126;SDS011;17775;57.948;12.514;2023-09-19T03:50:57;5.85;;;5.25;;
31126;SDS011;17775;57.948;12.514;2023-09-19T03:53:24;5.28;;;4.78;;
31126;SDS011;17775;57.948;12.514;2023-09-19T03:55:50;5.03;;;4.53;;
31126;SDS011;17775;57.948;12.514;2023-09-19T03:58:17;5.68;;;5.07;;
31126;SDS011;17775;57.948;12.514;2023-09-19T04:00:43;6.35;;;5.38;;
31126;SDS011;17775;57.948;12.514;2023-09-19T04:03:10;6.28;;;5.00;;
31126;SDS011;17775;57.948;12.514;2023-09-19T04:05:45;4.53;;;4.13;;
31126;SDS011;17775;57.948;12.514;2023-09-19T04:08:13;4.88;;;4.35;;
31126;SDS011;17775;57.948;12.514;2023-09-19T04:10:43;5.22;;;4.63;;
31126;SDS011;17775;57.948;12.514;2023-09-19T04:13:10;5.73;;;4.50;;
31126;SDS011;17775;57.948;12.514;2023-09-19T04:15:37;4.43;;;3.72;;
31126;SDS011;17775;57.948;12.514;2023-09-19T04:18:03;6.22;;;4.30;;
31126;SDS011;17775;57.948;12.514;2023-09-19T04:20:30;4.25;;;3.38;;
31126;SDS011;17775;57.948;12.514;2023-09-19T04:22:56;5.35;;;4.13;;
31126;SDS011;17775;57.948;12.514;2023-09-19T04:25:23;3.65;;;3.22;;
31126;SDS011;17775;57.948;12.514;2023-09-19T04:27:50;4.90;;;3.58;;
31126;SDS011;17775;57.948;12.514;2023-09-19T04:30:16;4.95;;;3.63;;
31126;SDS011;17775;57.948;12.514;2023-09-19T04:32:43;3.38;;;2.88;;
31126;SDS011;17775;57.948;12.514;2023-09-19T04:35:10;6.68;;;2.90;;
31126;SDS011;17775;57.948;12.514;2023-09-19T04:37:44;3.72;;;2.80;;
31126;SDS011;17775;57.948;12.514;2023-09-19T04:40:11;4.35;;;2.67;;
31126;SDS011;17775;57.948;12.514;2023-09-19T04:42:44;4.68;;;2.90;;
31126;SDS011;17775;57.948;12.514;2023-09-19T04:45:10;3.33;;;2.80;;
31126;SDS011;17775;57.948;12.514;2023-09-19T04:47:39;3.67;;;2.42;;
31126;SDS011;17775;57.948;12.514;2023-09-19T04:50:08;4.25;;;2.75;;
31126;SDS011;17775;57.948;12.514;2023-09-19T04:52:39;3.17;;;2.42;;
31126;SDS011;17775;57.948;12.514;2023-09-19T04:55:13;4.45;;;2.25;;
31126;SDS011;17775;57.948;12.514;2023-09-19T04:57:47;3.90;;;2.58;;
31126;SDS011;17775;57.948;12.514;2023-09-19T05:00:17;3.38;;;2.63;;
31126;SDS011;17775;57.948;12.514;2023-09-19T05:02:46;3.28;;;2.20;;
31126;SDS011;17775;57.948;12.514;2023-09-19T05:05:15;3.95;;;2.53;;
31126;SDS011;17775;57.948;12.514;2023-09-19T05:07:49;5.50;;;2.78;;
31126;SDS011;17775;57.948;12.514;2023-09-19T05:10:29;2.20;;;1.88;;
31126;SDS011;17775;57.948;12.514;2023-09-19T05:12:57;2.67;;;1.77;;
31126;SDS011;17775;57.948;12.514;2023-09-19T05:15:24;3.63;;;2.03;;
31126;SDS011;17775;57.948;12.514;2023-09-19T05:17:51;3.35;;;2.25;;
31126;SDS011;17775;57.948;12.514;2023-09-19T05:22:59;4.03;;;2.58;;
31126;SDS011;17775;57.948;12.514;2023-09-19T05:25:28;6.32;;;3.00;;
31126;SDS011;17775;57.948;12.514;2023-09-19T05:27:56;5.22;;;2.90;;
31126;SDS011;17775;57.948;12.514;2023-09-19T05:30:27;4.00;;;2.47;;
31126;SDS011;17775;57.948;12.514;2023-09-19T05:32:55;3.30;;;2.25;;
31126;SDS011;17775;57.948;12.514;2023-09-19T05:35:22;2.35;;;1.88;;
31126;SDS011;17775;57.948;12.514;2023-09-19T05:37:52;3.45;;;1.83;;
31126;SDS011;17775;57.948;12.514;2023-09-19T05:40:19;2.42;;;1.70;;
31126;SDS011;17775;57.948;12.514;2023-09-19T05:42:46;2.50;;;1.65;;
31126;SDS011;17775;57.948;12.514;2023-09-19T05:45:13;3.47;;;1.30;;
31126;SDS011;17775;57.948;12.514;2023-09-19T05:47:40;2.45;;;1.55;;
31126;SDS011;17775;57.948;12.514;2023-09-19T05:50:11;2.50;;;1.30;;
31126;SDS011;17775;57.948;12.514;2023-09-19T05:52:38;2.58;;;1.30;;
31126;SDS011;17775;57.948;12.514;2023-09-19T05:55:05;3.22;;;1.40;;
31126;SDS011;17775;57.948;12.514;2023-09-19T05:57:34;2.40;;;1.15;;
31126;SDS011;17775;57.948;12.514;2023-09-19T06:00:00;3.95;;;1.13;;
31126;SDS011;17775;57.948;12.514;2023-09-19T06:02:27;2.55;;;1.27;;
31126;SDS011;17775;57.948;12.514;2023-09-19T06:04:56;3.28;;;1.13;;
31126;SDS011;17775;57.948;12.514;2023-09-19T06:07:23;4.70;;;1.48;;
31126;SDS011;17775;57.948;12.514;2023-09-19T06:09:54;2.63;;;1.20;;
31126;SDS011;17775;57.948;12.514;2023-09-19T06:12:20;4.45;;;1.02;;
31126;SDS011;17775;57.948;12.514;2023-09-19T06:14:47;2.65;;;1.23;;
31126;SDS011;17775;57.948;12.514;2023-09-19T06:17:15;2.65;;;1.17;;
31126;SDS011;17775;57.948;12.514;2023-09-19T06:19:42;4.65;;;1.48;;
31126;SDS011;17775;57.948;12.514;2023-09-19T06:22:14;3.78;;;1.50;;
31126;SDS011;17775;57.948;12.514;2023-09-19T06:27:10;5.25;;;1.58;;
31126;SDS011;17775;57.948;12.514;2023-09-19T06:29:40;5.93;;;2.30;;
31126;SDS011;17775;57.948;12.514;2023-09-19T06:32:07;5.75;;;2.50;;
31126;SDS011;17775;57.948;12.514;2023-09-19T06:34:35;4.22;;;2.20;;
31126;SDS011;17775;57.948;12.514;2023-09-19T06:37:02;4.55;;;1.92;;
31126;SDS011;17775;57.948;12.514;2023-09-19T06:39:29;4.72;;;2.08;;
31126;SDS011;17775;57.948;12.514;2023-09-19T06:41:57;2.97;;;1.42;;
31126;SDS011;17775;57.948;12.514;2023-09-19T06:44:24;3.97;;;1.60;;
31126;SDS011;17775;57.948;12.514;2023-09-19T06:46:51;4.07;;;1.80;;
31126;SDS011;17775;57.948;12.514;2023-09-19T06:49:18;2.67;;;1.30;;
31126;SDS011;17775;57.948;12.514;2023-09-19T06:51:44;1.63;;;0.93;;
31126;SDS011;17775;57.948;12.514;2023-09-19T06:54:13;2.05;;;1.30;;
31126;SDS011;17775;57.948;12.514;2023-09-19T06:56:55;4.68;;;1.52;;
31126;SDS011;17775;57.948;12.514;2023-09-19T06:59:36;3.67;;;1.17;;
31126;SDS011;17775;57.948;12.514;2023-09-19T07:02:17;1.70;;;1.00;;
31126;SDS011;17775;57.948;12.514;2023-09-19T07:05:00;2.10;;;0.82;;
31126;SDS011;17775;57.948;12.514;2023-09-19T07:07:43;2.65;;;0.95;;
31126;SDS011;17775;57.948;12.514;2023-09-19T07:10:25;1.85;;;0.80;;
31126;SDS011;17775;57.948;12.514;2023-09-19T07:12:55;0.65;;;0.50;;
31126;SDS011;17775;57.948;12.514;2023-09-19T07:15:22;1.23;;;0.70;;
31126;SDS011;17775;57.948;12.514;2023-09-19T07:17:50;0.85;;;0.70;;
31126;SDS011;17775;57.948;12.514;2023-09-19T07:20:17;1.98;;;0.80;;
31126;SDS011;17775;57.948;12.514;2023-09-19T07:22:44;2.70;;;0.75;;
31126;SDS011;17775;57.948;12.514;2023-09-19T07:25:11;2.22;;;0.85;;
31126;SDS011;17775;57.948;12.514;2023-09-19T07:27:37;0.95;;;0.47;;
31126;SDS011;17775;57.948;12.514;2023-09-19T07:30:04;1.15;;;0.77;;
31126;SDS011;17775;57.948;12.514;2023-09-19T07:32:31;1.48;;;0.80;;
31126;SDS011;17775;57.948;12.514;2023-09-19T07:34:58;1.73;;;0.65;;
31126;SDS011;17775;57.948;12.514;2023-09-19T07:37:25;1.10;;;0.60;;
31126;SDS011;17775;57.948;12.514;2023-09-19T07:39:52;1.58;;;0.57;;
31126;SDS011;17775;57.948;12.514;2023-09-19T07:42:18;1.27;;;0.57;;
31126;SDS011;17775;57.948;12.514;2023-09-19T07:44:45;0.98;;;0.80;;
31126;SDS011;17775;57.948;12.514;2023-09-19T07:47:14;0.90;;;0.73;;
31126;SDS011;17775;57.948;12.514;2023-09-19T07:49:45;2.53;;;1.05;;
31126;SDS011;17775;57.948;12.514;2023-09-19T07:52:13;3.17;;;0.98;;
31126;SDS011;17775;57.948;12.514;2023-09-19T07:54:41;1.05;;;0.77;;
31126;SDS011;17775;57.948;12.514;2023-09-19T07:57:10;1.20;;;0.70;;
31126;SDS011;17775;57.948;12.514;2023-09-19T07:59:37;1.15;;;0.70;;
31126;SDS011;17775;57.948;12.514;2023-09-19T08:02:04;2.15;;;1.05;;
31126;SDS011;17775;57.948;12.514;2023-09-19T08:04:31;3.60;;;1.10;;
31126;SDS011;17775;57.948;12.514;2023-09-19T08:07:00;1.85;;;0.98;;
31126;SDS011;17775;57.948;12.514;2023-09-19T08:09:29;3.33;;;1.40;;
31126;SDS011;17775;57.948;12.514;2023-09-19T08:11:59;3.07;;;1.20;;
31126;SDS011;17775;57.948;12.514;2023-09-19T08:14:28;3.90;;;1.30;;
31126;SDS011;17775;57.948;12.514;2023-09-19T08:16:56;3.13;;;1.25;;
31126;SDS011;17775;57.948;12.514;2023-09-19T08:19:24;4.82;;;1.50;;
31126;SDS011;17775;57.948;12.514;2023-09-19T08:21:57;4.53;;;1.88;;
31126;SDS011;17775;57.948;12.514;2023-09-19T08:24:27;3.47;;;1.42;;
31126;SDS011;17775;57.948;12.514;2023-09-19T08:27:00;3.63;;;1.50;;
31126;SDS011;17775;57.948;12.514;2023-09-19T08:29:27;2.67;;;1.40;;
31126;SDS011;17775;57.948;12.514;2023-09-19T08:31:55;3.60;;;1.70;;
31126;SDS011;17775;57.948;12.514;2023-09-19T08:34:25;6.43;;;2.05;;
31126;SDS011;17775;57.948;12.514;2023-09-19T08:36:52;2.97;;;1.42;;
31126;SDS011;17775;57.948;12.514;2023-09-19T08:39:27;2.75;;;1.30;;
31126;SDS011;17775;57.948;12.514;2023-09-19T08:42:00;4.78;;;1.80;;
31126;SDS011;17775;57.948;12.514;2023-09-19T08:44:27;4.17;;;1.60;;
31126;SDS011;17775;57.948;12.514;2023-09-19T08:47:01;2.92;;;1.40;;
31126;SDS011;17775;57.948;12.514;2023-09-19T08:49:36;4.32;;;1.35;;
31126;SDS011;17775;57.948;12.514;2023-09-19T08:52:16;4.32;;;1.60;;
31126;SDS011;17775;57.948;12.514;2023-09-19T08:57:13;4.82;;;1.55;;
31126;SDS011;17775;57.948;12.514;2023-09-19T08:59:48;6.43;;;1.92;;
31126;SDS011;17775;57.948;12.514;2023-09-19T09:02:17;4.32;;;1.70;;
31126;SDS011;17775;57.948;12.514;2023-09-19T09:04:47;5.90;;;2.08;;
31126;SDS011;17775;57.948;12.514;2023-09-19T09:07:15;8.77;;;2.40;;
31126;SDS011;17775;57.948;12.514;2023-09-19T09:09:43;5.15;;;2.67;;
31126;SDS011;17775;57.948;12.514;2023-09-19T09:12:14;4.43;;;2.15;;
31126;SDS011;17775;57.948;12.514;2023-09-19T09:17:07;6.97;;;2.60;;
31126;SDS011;17775;57.948;12.514;2023-09-19T09:19:34;3.20;;;1.88;;
31126;SDS011;17775;57.948;12.514;2023-09-19T09:22:08;3.45;;;1.58;;
31126;SDS011;17775;57.948;12.514;2023-09-19T09:24:35;2.92;;;1.33;;
31126;SDS011;17775;57.948;12.514;2023-09-19T09:27:05;4.13;;;1.85;;
31126;SDS011;17775;57.948;12.514;2023-09-19T09:35:07;4.32;;;1.75;;
31126;SDS011;17775;57.948;12.514;2023-09-19T09:37:36;5.07;;;1.60;;
31126;SDS011;17775;57.948;12.514;2023-09-19T09:40:05;3.20;;;1.25;;
31126;SDS011;17775;57.948;12.514;2023-09-19T09:42:40;2.67;;;0.95;;
31126;SDS011;17775;57.948;12.514;2023-09-19T09:45:17;2.90;;;1.35;;
31126;SDS011;17775;57.948;12.514;2023-09-19T09:47:47;3.70;;;1.83;;
31126;SDS011;17775;57.948;12.514;2023-09-19T09:50:24;7.95;;;2.20;;
31126;SDS011;17775;57.948;12.514;2023-09-19T09:52:55;3.97;;;1.50;;
31126;SDS011;17775;57.948;12.514;2023-09-19T09:55:56;4.60;;;1.63;;
31126;SDS011;17775;57.948;12.514;2023-09-19T09:58:23;4.45;;;1.20;;
31126;SDS011;17775;57.948;12.514;2023-09-19T10:00:56;3.42;;;1.40;;
31126;SDS011;17775;57.948;12.514;2023-09-19T10:03:36;5.63;;;1.58;;
31126;SDS011;17775;57.948;12.514;2023-09-19T10:06:10;4.10;;;1.17;;
31126;SDS011;17775;57.948;12.514;2023-09-19T10:11:31;5.40;;;1.40;;
31126;SDS011;17775;57.948;12.514;2023-09-19T10:13:58;2.53;;;1.13;;
31126;SDS011;17775;57.948;12.514;2023-09-19T10:16:29;1.42;;;0.95;;
31126;SDS011;17775;57.948;12.514;2023-09-19T10:18:58;1.52;;;0.75;;
31126;SDS011;17775;57.948;12.514;2023-09-19T10:21:28;2.22;;;0.80;;
31126;SDS011;17775;57.948;12.514;2023-09-19T10:23:59;2.17;;;1.02;;
31126;SDS011;17775;57.948;12.514;2023-09-19T10:26:27;2.33;;;0.95;;
31126;SDS011;17775;57.948;12.514;2023-09-19T10:28:57;2.22;;;1.08;;
31126;SDS011;17775;57.948;12.514;2023-09-19T10:31:27;2.58;;;1.05;;
31126;SDS011;17775;57.948;12.514;2023-09-19T10:33:55;2.05;;;0.80;;
31126;SDS011;17775;57.948;12.514;2023-09-19T10:36:25;2.38;;;1.00;;
31126;SDS011;17775;57.948;12.514;2023-09-19T10:38:52;1.50;;;0.80;;
31126;SDS011;17775;57.948;12.514;2023-09-19T10:41:22;1.27;;;0.70;;
31126;SDS011;17775;57.948;12.514;2023-09-19T10:43:48;1.40;;;0.80;;
31126;SDS011;17775;57.948;12.514;2023-09-19T10:46:15;2.00;;;0.90;;
31126;SDS011;17775;57.948;12.514;2023-09-19T10:48:42;1.90;;;0.88;;
31126;SDS011;17775;57.948;12.514;2023-09-19T10:51:21;1.67;;;0.80;;
31126;SDS011;17775;57.948;12.514;2023-09-19T10:53:52;1.55;;;0.80;;
31126;SDS011;17775;57.948;12.514;2023-09-19T10:56:24;2.08;;;0.80;;
31126;SDS011;17775;57.948;12.514;2023-09-19T10:59:06;1.25;;;0.80;;
31126;SDS011;17775;57.948;12.514;2023-09-19T11:01:51;1.42;;;0.70;;
31126;SDS011;17775;57.948;12.514;2023-09-19T11:04:31;2.75;;;1.20;;
31126;SDS011;17775;57.948;12.514;2023-09-19T11:14:57;1.42;;;0.88;;
31126;SDS011;17775;57.948;12.514;2023-09-19T11:17:34;2.40;;;1.00;;
31126;SDS011;17775;57.948;12.514;2023-09-19T11:23:35;1.95;;;0.95;;
31126;SDS011;17775;57.948;12.514;2023-09-19T11:30:35;2.28;;;0.70;;
31126;SDS011;17775;57.948;12.514;2023-09-19T11:36:06;2.17;;;0.95;;
31126;SDS011;17775;57.948;12.514;2023-09-19T11:49:19;2.13;;;0.88;;
31126;SDS011;17775;57.948;12.514;2023-09-19T11:51:56;1.83;;;0.95;;
31126;SDS011;17775;57.948;12.514;2023-09-19T11:54:23;1.77;;;0.90;;
31126;SDS011;17775;57.948;12.514;2023-09-19T11:56:58;1.98;;;0.75;;
31126;SDS011;17775;57.948;12.514;2023-09-19T11:59:28;3.10;;;0.88;;
31126;SDS011;17775;57.948;12.514;2023-09-19T12:02:15;2.65;;;0.90;;
31126;SDS011;17775;57.948;12.514;2023-09-19T12:04:45;2.53;;;1.00;;
31126;SDS011;17775;57.948;12.514;2023-09-19T12:07:15;1.67;;;0.77;;
31126;SDS011;17775;57.948;12.514;2023-09-19T12:09:43;2.47;;;0.68;;
31126;SDS011;17775;57.948;12.514;2023-09-19T12:12:10;4.22;;;1.77;;
31126;SDS011;17775;57.948;12.514;2023-09-19T12:14:47;4.50;;;1.52;;
31126;SDS011;17775;57.948;12.514;2023-09-19T12:17:15;2.67;;;0.90;;
31126;SDS011;17775;57.948;12.514;2023-09-19T12:19:51;2.90;;;1.25;;
31126;SDS011;17775;57.948;12.514;2023-09-19T12:22:18;1.98;;;0.88;;
31126;SDS011;17775;57.948;12.514;2023-09-19T12:24:46;1.95;;;0.88;;
31126;SDS011;17775;57.948;12.514;2023-09-19T12:27:13;1.42;;;0.88;;
31126;SDS011;17775;57.948;12.514;2023-09-19T12:29:43;2.28;;;0.98;;
31126;SDS011;17775;57.948;12.514;2023-09-19T12:32:10;2.28;;;0.98;;
31126;SDS011;17775;57.948;12.514;2023-09-19T12:34:37;1.38;;;0.60;;
31126;SDS011;17775;57.948;12.514;2023-09-19T12:39:39;2.40;;;0.80;;
31126;SDS011;17775;57.948;12.514;2023-09-19T12:42:08;2.20;;;0.73;;
31126;SDS011;17775;57.948;12.514;2023-09-19T12:44:39;2.15;;;0.93;;
31126;SDS011;17775;57.948;12.514;2023-09-19T12:47:08;1.90;;;0.63;;
31126;SDS011;17775;57.948;12.514;2023-09-19T12:49:35;1.65;;;0.73;;
31126;SDS011;17775;57.948;12.514;2023-09-19T12:52:05;2.58;;;1.10;;
31126;SDS011;17775;57.948;12.514;2023-09-19T12:54:39;2.28;;;0.98;;
31126;SDS011;17775;57.948;12.514;2023-09-19T12:57:06;1.58;;;0.82;;
31126;SDS011;17775;57.948;12.514;2023-09-19T12:59:32;2.13;;;1.05;;
31126;SDS011;17775;57.948;12.514;2023-09-19T13:02:05;1.60;;;0.77;;
31126;SDS011;17775;57.948;12.514;2023-09-19T13:04:40;2.17;;;0.82;;
31126;SDS011;17775;57.948;12.514;2023-09-19T13:07:09;1.20;;;0.73;;
31126;SDS011;17775;57.948;12.514;2023-09-19T13:10:04;1.58;;;0.70;;
31126;SDS011;17775;57.948;12.514;2023-09-19T13:12:34;1.92;;;0.70;;
31126;SDS011;17775;57.948;12.514;2023-09-19T13:15:07;3.80;;;0.85;;
31126;SDS011;17775;57.948;12.514;2023-09-19T13:17:44;1.73;;;0.70;;
31126;SDS011;17775;57.948;12.514;2023-09-19T13:20:21;2.33;;;0.80;;
31126;SDS011;17775;57.948;12.514;2023-09-19T13:22:51;2.25;;;0.77;;
31126;SDS011;17775;57.948;12.514;2023-09-19T13:25:26;2.00;;;0.90;;
31126;SDS011;17775;57.948;12.514;2023-09-19T13:27:56;2.10;;;0.70;;
31126;SDS011;17775;57.948;12.514;2023-09-19T13:30:24;1.48;;;0.80;;
31126;SDS011;17775;57.948;12.514;2023-09-19T13:33:09;2.10;;;0.80;;
31126;SDS011;17775;57.948;12.514;2023-09-19T13:35:38;1.95;;;0.73;;
31126;SDS011;17775;57.948;12.514;2023-09-19T13:38:06;2.17;;;0.80;;
31126;SDS011;17775;57.948;12.514;2023-09-19T13:40:36;3.13;;;0.70;;
31126;SDS011;17775;57.948;12.514;2023-09-19T13:43:03;1.88;;;0.80;;
31126;SDS011;17775;57.948;12.514;2023-09-19T13:45:29;2.60;;;1.05;;
31126;SDS011;17775;57.948;12.514;2023-09-19T13:47:57;3.25;;;0.90;;
31126;SDS011;17775;57.948;12.514;2023-09-19T13:50:25;2.35;;;1.05;;
31126;SDS011;17775;57.948;12.514;2023-09-19T13:52:52;2.67;;;0.77;;
31126;SDS011;17775;57.948;12.514;2023-09-19T13:55:20;2.85;;;0.90;;
31126;SDS011;17775;57.948;12.514;2023-09-19T13:57:47;2.50;;;1.15;;
31126;SDS011;17775;57.948;12.514;2023-09-19T14:00:16;2.50;;;1.00;;
31126;SDS011;17775;57.948;12.514;2023-09-19T14:02:44;3.58;;;1.30;;
31126;SDS011;17775;57.948;12.514;2023-09-19T14:05:12;3.70;;;1.02;;
31126;SDS011;17775;57.948;12.514;2023-09-19T14:07:41;2.42;;;0.77;;
31126;SDS011;17775;57.948;12.514;2023-09-19T14:10:08;4.25;;;0.93;;
31126;SDS011;17775;57.948;12.514;2023-09-19T14:12:34;2.20;;;0.82;;
31126;SDS011;17775;57.948;12.514;2023-09-19T14:15:01;1.85;;;0.80;;
31126;SDS011;17775;57.948;12.514;2023-09-19T14:17:27;3.47;;;1.08;;
31126;SDS011;17775;57.948;12.514;2023-09-19T14:19:54;2.00;;;0.80;;
31126;SDS011;17775;57.948;12.514;2023-09-19T14:22:21;2.78;;;0.80;;
31126;SDS011;17775;57.948;12.514;2023-09-19T14:24:48;2.58;;;0.85;;
31126;SDS011;17775;57.948;12.514;2023-09-19T14:27:14;2.17;;;0.88;;
31126;SDS011;17775;57.948;12.514;2023-09-19T14:29:41;4.35;;;1.30;;
31126;SDS011;17775;57.948;12.514;2023-09-19T14:32:07;3.55;;;1.00;;
31126;SDS011;17775;57.948;12.514;2023-09-19T14:34:34;1.35;;;0.70;;
31126;SDS011;17775;57.948;12.514;2023-09-19T14:37:03;2.67;;;1.20;;
31126;SDS011;17775;57.948;12.514;2023-09-19T14:39:30;2.45;;;0.90;;
31126;SDS011;17775;57.948;12.514;2023-09-19T14:41:59;1.33;;;0.77;;
31126;SDS011;17775;57.948;12.514;2023-09-19T14:44:25;1.88;;;0.80;;
31126;SDS011;17775;57.948;12.514;2023-09-19T14:46:52;0.90;;;0.50;;
31126;SDS011;17775;57.948;12.514;2023-09-19T14:49:19;1.73;;;0.77;;
31126;SDS011;17775;57.948;12.514;2023-09-19T14:51:45;2.97;;;0.80;;
31126;SDS011;17775;57.948;12.514;2023-09-19T14:54:14;1.48;;;0.80;;
31126;SDS011;17775;57.948;12.514;2023-09-19T14:56:46;4.53;;;0.98;;
31126;SDS011;17775;57.948;12.514;2023-09-19T14:59:19;3.63;;;1.20;;
31126;SDS011;17775;57.948;12.514;2023-09-19T15:01:49;3.38;;;1.05;;
31126;SDS011;17775;57.948;12.514;2023-09-19T15:04:58;1.85;;;0.70;;
31126;SDS011;17775;57.948;12.514;2023-09-19T15:07:40;2.05;;;0.82;;
31126;SDS011;17775;57.948;12.514;2023-09-19T15:10:07;2.22;;;0.80;;
31126;SDS011;17775;57.948;12.514;2023-09-19T15:12:36;1.35;;;0.60;;
31126;SDS011;17775;57.948;12.514;2023-09-19T15:15:04;0.93;;;0.60;;
31126;SDS011;17775;57.948;12.514;2023-09-19T15:17:35;2.05;;;0.82;;
31126;SDS011;17775;57.948;12.514;2023-09-19T15:20:02;3.40;;;1.15;;
31126;SDS011;17775;57.948;12.514;2023-09-19T15:22:29;3.17;;;0.93;;
31126;SDS011;17775;57.948;12.514;2023-09-19T15:24:58;2.60;;;1.10;;
31126;SDS011;17775;57.948;12.514;2023-09-19T15:27:25;6.30;;;1.67;;
31126;SDS011;17775;57.948;12.514;2023-09-19T15:29:52;2.03;;;0.90;;
31126;SDS011;17775;57.948;12.514;2023-09-19T15:32:19;2.65;;;1.13;;
31126;SDS011;17775;57.948;12.514;2023-09-19T15:34:47;2.22;;;0.90;;
31126;SDS011;17775;57.948;12.514;2023-09-19T15:37:13;2.10;;;0.85;;
31126;SDS011;17775;57.948;12.514;2023-09-19T15:39:40;1.88;;;0.90;;
31126;SDS011;17775;57.948;12.514;2023-09-19T15:42:09;1.70;;;0.80;;
31126;SDS011;17775;57.948;12.514;2023-09-19T15:44:36;2.53;;;0.70;;
31126;SDS011;17775;57.948;12.514;2023-09-19T15:47:03;1.90;;;0.98;;
31126;SDS011;17775;57.948;12.514;2023-09-19T15:49:30;3.47;;;0.98;;
31126;SDS011;17775;57.948;12.514;2023-09-19T15:51:57;2.83;;;0.82;;
31126;SDS011;17775;57.948;12.514;2023-09-19T15:54:23;1.55;;;0.70;;
31126;SDS011;17775;57.948;12.514;2023-09-19T15:56:51;0.90;;;0.68;;